Time;durP1;ratioP1;P1;durP2;ratioP2;P2;SDS_P1;SDS_P2;PMS_P1;PMS_P2;Temp;Humidity;BMP_temperature;BMP_pressure;BME280_temperature;BME280_humidity;BME280_pressure;Samples;Min_cycle;Max_cycle;Signal;HPM_P1;HPM_P2
2021/11/12 00:03:45;;;;;;;;;;;;;;;5.37;100.00;100721.89;1636314;87;20138;-76
2021/11/12 00:14:07;;;;;;;;;;;;;;;5.50;100.00;100715.79;1633791;87;20173;-76
2021/11/12 00:16:33;;;;;;;;;;;;;;;5.51;100.00;100719.61;1633919;87;20182;-76
2021/11/12 00:18:59;;;;;;;;;;;;;;;5.55;100.00;100716.32;1632618;87;20196;-76
2021/11/12 00:21:24;;;;;;;;;;;;;;;5.58;100.00;100717.41;1631419;86;21097;-89
2021/11/12 00:23:50;;;;;;;;;;;;;;;5.65;100.00;100716.48;1631856;86;20159;-81
2021/11/12 00:26:15;;;;;;;;;;;;;;;5.64;100.00;100720.91;1632346;86;20149;-81
2021/11/12 00:28:51;;;;;;;;;;;;;;;5.67;100.00;100716.75;1634323;86;20238;-77
2021/11/12 00:31:36;;;;;;;;;;;;;;;5.65;100.00;100718.63;1632522;86;20176;-77
2021/11/12 00:36:54;;;;;;;;;;;;;;;5.75;100.00;100718.34;1637851;87;20222;-76
2021/11/12 00:39:23;;;;;;;;;;;;;;;5.78;100.00;100718.59;1656263;85;20126;-84
2021/11/12 00:42:21;;;;;;;;;;;;;;;5.71;100.00;100716.88;1648612;86;20142;-77
2021/11/12 00:46:59;;;;;;;;;;;;;;;5.84;100.00;100710.74;1653034;86;20156;-80
2021/11/12 00:49:21;;;;;;;;;;;;;;;5.88;100.00;100713.52;1648965;85;20131;-76
2021/11/12 00:51:49;;;;;;;;;;;;;;;5.92;100.00;100711.05;1656923;85;20181;-81
2021/11/12 00:54:13;;;;;;;;;;;;;;;6.02;100.00;100717.78;1653150;86;20136;-77
2021/11/12 00:56:39;;;;;;;;;;;;;;;5.93;100.00;100711.39;1653177;86;20228;-81
2021/11/12 00:59:05;;;;;;;;;;;;;;;5.88;100.00;100713.52;1649296;85;21270;-77
2021/11/12 01:01:34;;;;;;;;;;;;;;;5.87;100.00;100710.07;1647148;86;20207;-77
2021/11/12 01:04:00;;;;;;;;;;;;;;;5.98;100.00;100713.70;1656005;85;20203;-85
2021/11/12 01:06:25;;;;;;;;;;;;;;;6.00;100.00;100719.20;1655192;86;20194;-78
2021/11/12 01:08:51;;;;;;;;;;;;;;;5.98;100.00;100719.80;1652910;85;20221;-76
2021/11/12 01:11:18;;;;;;;;;;;;;;;5.97;100.00;100706.81;1652301;85;21154;-77
2021/11/12 01:13:44;;;;;;;;;;;;;;;6.04;100.00;100715.88;1649725;86;20161;-85
2021/11/12 01:16:10;;;;;;;;;;;;;;;6.01;100.00;100717.41;1654705;86;20514;-77
2021/11/12 01:18:36;;;;;;;;;;;;;;;6.02;100.00;100721.23;1653058;85;20193;-78
2021/11/12 01:21:07;;;;;;;;;;;;;;;5.94;100.00;100713.07;1648098;85;20186;-76
2021/11/12 01:23:33;;;;;;;;;;;;;;;6.01;100.00;100714.34;1648528;85;21296;-78
2021/11/12 01:26:00;;;;;;;;;;;;;;;5.96;100.00;100716.41;1646876;86;20188;-78
2021/11/12 01:28:25;;;;;;;;;;;;;;;5.98;100.00;100709.31;1650299;85;20160;-85
2021/11/12 01:30:52;;;;;;;;;;;;;;;5.94;100.00;100709.14;1652488;86;20141;-77
2021/11/12 01:33:19;;;;;;;;;;;;;;;5.99;100.00;100717.52;1651687;86;20550;-78
2021/11/12 01:35:45;;;;;;;;;;;;;;;6.07;100.00;100713.03;1651974;86;21082;-79
2021/11/12 01:38:11;;;;;;;;;;;;;;;5.96;100.00;100715.58;1634526;86;20759;-80
2021/11/12 01:40:36;;;;;;;;;;;;;;;6.07;100.00;100724.34;1591447;88;20178;-78
2021/11/12 01:43:17;;;;;;;;;;;;;;;6.10;100.00;100716.73;1589676;88;20134;-84
2021/11/12 01:50:49;;;;;;;;;;;;;;;6.15;100.00;100715.09;1607237;88;20161;-79
2021/11/12 01:53:13;;;;;;;;;;;;;;;6.09;100.00;100710.66;1607823;88;20582;-85
2021/11/12 01:58:49;;;;;;;;;;;;;;;6.14;100.00;100712.09;1609308;88;20124;-78
2021/11/12 02:00:55;;;;;;;;;;;;;;;6.21;100.00;100704.97;1604185;87;20946;-81
2021/11/12 02:03:21;;;;;;;;;;;;;;;6.18;100.00;100708.30;1610880;87;20153;-76
2021/11/12 02:05:47;;;;;;;;;;;;;;;6.27;100.00;100711.55;1610804;87;20228;-79
2021/11/12 02:08:13;;;;;;;;;;;;;;;6.34;100.00;100704.05;1604840;87;20213;-85
2021/11/12 02:10:38;;;;;;;;;;;;;;;6.34;100.00;100709.30;1608610;87;20138;-76
2021/11/12 02:13:13;;;;;;;;;;;;;;;6.28;100.00;100711.92;1607709;88;21101;-79
2021/11/12 02:15:36;;;;;;;;;;;;;;;6.45;100.00;100720.67;1604812;87;20467;-77
2021/11/12 02:18:07;;;;;;;;;;;;;;;6.53;100.00;100725.34;1609117;87;20152;-81
2021/11/12 02:23:02;;;;;;;;;;;;;;;6.58;100.00;100725.00;1607102;88;20141;-79
2021/11/12 02:25:29;;;;;;;;;;;;;;;6.68;100.00;100725.98;1609241;87;20221;-79
2021/11/12 02:27:59;;;;;;;;;;;;;;;6.64;100.00;100732.41;1608995;88;20924;-76
2021/11/12 02:30:27;;;;;;;;;;;;;;;6.52;100.00;100734.64;1605535;87;20171;-77
2021/11/12 02:32:58;;;;;;;;;;;;;;;6.62;100.00;100731.70;1606045;87;20151;-80
2021/11/12 02:35:24;;;;;;;;;;;;;;;6.61;100.00;100725.59;1607726;88;20181;-77
2021/11/12 02:37:49;;;;;;;;;;;;;;;6.55;100.00;100736.55;1618216;88;21249;-77
2021/11/12 02:40:15;;;;;;;;;;;;;;;6.58;100.00;100745.98;1626612;86;20150;-79
2021/11/12 02:42:41;;;;;;;;;;;;;;;6.45;100.00;100749.53;1624344;87;20188;-78
2021/11/12 02:45:07;;;;;;;;;;;;;;;6.53;100.00;100742.88;1622516;86;20149;-76
2021/11/12 02:47:32;;;;;;;;;;;;;;;6.53;100.00;100742.88;1627069;86;20183;-77
2021/11/12 02:49:59;;;;;;;;;;;;;;;6.49;100.00;100741.43;1621999;86;21088;-76
2021/11/12 02:52:24;;;;;;;;;;;;;;;6.53;100.00;100740.26;1625500;86;20181;-79
2021/11/12 02:54:50;;;;;;;;;;;;;;;6.36;100.00;100742.34;1624355;86;20149;-75
2021/11/12 02:57:17;;;;;;;;;;;;;;;6.50;100.00;100743.11;1621200;88;20822;-77
2021/11/12 02:59:42;;;;;;;;;;;;;;;6.45;100.00;100741.66;1624378;88;20226;-76
2021/11/12 03:02:08;;;;;;;;;;;;;;;6.49;100.00;100738.81;1625614;86;21090;-78
2021/11/12 03:04:34;;;;;;;;;;;;;;;6.54;100.00;100739.28;1623359;87;21420;-77
2021/11/12 03:06:59;;;;;;;;;;;;;;;6.51;100.00;100736.89;1629444;86;20486;-88
2021/11/12 03:09:28;;;;;;;;;;;;;;;6.61;100.00;100746.58;1622495;88;20463;-77
2021/11/12 03:11:56;;;;;;;;;;;;;;;6.58;100.00;100743.36;1625543;86;21041;-77
2021/11/12 03:14:21;;;;;;;;;;;;;;;6.54;100.00;100745.84;1624948;86;21083;-77
2021/11/12 03:16:47;;;;;;;;;;;;;;;6.62;100.00;100736.45;1626505;86;21037;-76
2021/11/12 03:19:13;;;;;;;;;;;;;;;6.51;100.00;100739.52;1626632;87;20228;-79
2021/11/12 03:21:41;;;;;;;;;;;;;;;6.55;100.00;100739.17;1623084;86;20802;-78
2021/11/12 03:24:12;;;;;;;;;;;;;;;6.63;100.00;100739.91;1625435;86;20218;-77
2021/11/12 03:26:43;;;;;;;;;;;;;;;6.55;100.00;100738.34;1608172;86;20130;-77
2021/11/12 03:56:36;;;;;;;;;;;;;;;6.71;100.00;100752.00;1635467;86;20725;-79
2021/11/12 04:04:44;;;;;;;;;;;;;;;6.87;100.00;100758.67;1632020;87;20145;-77
2021/11/12 04:19:07;;;;;;;;;;;;;;;6.74;100.00;100765.34;1637081;87;20185;-74
2021/11/12 04:49:18;;;;;;;;;;;;;;;6.74;100.00;100757.02;1633326;87;20166;-79
2021/11/12 05:11:17;;;;;;;;;;;;;;;6.71;100.00;100782.63;1647170;86;20461;-81
2021/11/12 05:13:59;;;;;;;;;;;;;;;6.72;100.00;100787.77;1641055;85;20629;-80
2021/11/12 05:46:05;;;;;;;;;;;;;;;6.88;100.00;100795.80;1650738;86;20154;-78
2021/11/12 05:56:22;;;;;;;;;;;;;;;7.06;100.00;100813.27;1647585;85;20176;-77
2021/11/12 05:58:48;;;;;;;;;;;;;;;7.13;100.00;100812.69;1652932;86;20158;-88
2021/11/12 06:01:13;;;;;;;;;;;;;;;7.12;100.00;100817.56;1646578;85;20125;-78
2021/11/12 06:03:39;;;;;;;;;;;;;;;7.08;100.00;100812.18;1654811;85;20149;-84
2021/11/12 06:06:04;;;;;;;;;;;;;;;7.07;100.00;100807.05;1653882;85;21084;-77
2021/11/12 06:08:30;;;;;;;;;;;;;;;7.13;100.00;100815.77;1661071;85;21351;-77
2021/11/12 06:10:56;;;;;;;;;;;;;;;7.08;100.00;100829.25;1652723;85;20214;-77
2021/11/12 06:13:22;;;;;;;;;;;;;;;7.15;100.00;100818.65;1657656;85;20279;-79
2021/11/12 06:15:47;;;;;;;;;;;;;;;7.19;100.00;100829.75;1653031;85;20158;-76
2021/11/12 06:18:13;;;;;;;;;;;;;;;7.20;100.00;100832.74;1655623;86;21169;-78
2021/11/12 06:20:38;;;;;;;;;;;;;;;7.32;100.00;100835.75;1652119;85;20459;-86
2021/11/12 06:23:04;;;;;;;;;;;;;;;7.23;100.00;100842.19;1650217;85;20162;-78
2021/11/12 06:25:30;;;;;;;;;;;;;;;7.10;100.00;100837.88;1651780;85;20640;-78
2021/11/12 06:27:56;;;;;;;;;;;;;;;7.32;100.00;100832.29;1657806;85;20475;-77
2021/11/12 06:30:22;;;;;;;;;;;;;;;7.27;100.00;100839.67;1658387;85;21094;-80
2021/11/12 06:32:47;;;;;;;;;;;;;;;7.23;100.00;100838.25;1658321;85;20218;-77
2021/11/12 06:35:13;;;;;;;;;;;;;;;7.34;100.00;100840.88;1654063;85;20195;-83
2021/11/12 06:37:39;;;;;;;;;;;;;;;7.34;100.00;100845.65;1652196;86;20140;-76
2021/11/12 06:40:05;;;;;;;;;;;;;;;7.37;100.00;100852.47;1659420;85;20163;-80
2021/11/12 06:42:37;;;;;;;;;;;;;;;7.36;100.00;100850.78;1654521;85;21187;-79
2021/11/12 06:50:13;;;;;;;;;;;;;;;7.39;100.00;100853.17;1656058;85;20217;-77
2021/11/12 06:52:41;;;;;;;;;;;;;;;7.39;100.00;100849.23;1656226;85;20187;-80
2021/11/12 06:55:09;;;;;;;;;;;;;;;7.40;100.00;100853.55;1653656;85;22053;-78
2021/11/12 06:57:35;;;;;;;;;;;;;;;7.44;100.00;100856.31;1653431;86;20107;-78
2021/11/12 07:00:00;;;;;;;;;;;;;;;7.44;100.00;100857.63;1648991;86;20190;-77
2021/11/12 07:02:26;;;;;;;;;;;;;;;7.42;100.00;100850.31;1654023;85;20694;-77
2021/11/12 07:04:52;;;;;;;;;;;;;;;7.45;100.00;100854.02;1656992;85;20133;-79
2021/11/12 07:07:17;;;;;;;;;;;;;;;7.46;100.00;100854.39;1658723;85;21063;-77
2021/11/12 07:09:46;;;;;;;;;;;;;;;7.55;100.00;100862.02;1648580;85;20177;-77
2021/11/12 07:12:11;;;;;;;;;;;;;;;7.59;100.00;100860.02;1658334;85;20202;-80
2021/11/12 07:14:36;;;;;;;;;;;;;;;7.54;100.00;100863.00;1656806;85;20167;-80
2021/11/12 07:17:03;;;;;;;;;;;;;;;7.51;100.00;100864.06;1654382;86;20133;-82
2021/11/12 07:19:28;;;;;;;;;;;;;;;7.50;100.00;100858.47;1655410;85;21063;-79
2021/11/12 07:21:57;;;;;;;;;;;;;;;7.65;100.00;100864.30;1654857;85;20524;-77
2021/11/12 07:24:22;;;;;;;;;;;;;;;7.64;100.00;100864.42;1660145;85;20207;-78
2021/11/12 07:26:48;;;;;;;;;;;;;;;7.60;100.00;100857.72;1657259;85;20173;-81
2021/11/12 07:29:13;;;;;;;;;;;;;;;7.43;100.00;100860.37;1652283;86;20377;-77
2021/11/12 07:31:41;;;;;;;;;;;;;;;7.51;100.00;100860.12;1653022;86;21145;-80
2021/11/12 07:34:06;;;;;;;;;;;;;;;7.48;100.00;100860.35;1651499;85;20174;-79
2021/11/12 07:36:40;;;;;;;;;;;;;;;7.50;100.00;100858.47;1654797;85;20147;-80
2021/11/12 07:39:09;;;;;;;;;;;;;;;7.39;100.00;100862.38;1650210;86;20083;-79
2021/11/12 07:47:12;;;;;;;;;;;;;;;7.57;100.00;100859.27;1655503;86;20174;-76
2021/11/12 07:49:37;;;;;;;;;;;;;;;7.68;100.00;100864.55;1652324;86;20473;-77
2021/11/12 07:52:04;;;;;;;;;;;;;;;7.70;100.00;100863.45;1649717;85;20280;-83
2021/11/12 07:54:30;;;;;;;;;;;;;;;7.78;100.00;100869.43;1648415;86;20209;-77
2021/11/12 07:56:55;;;;;;;;;;;;;;;7.68;100.00;100868.00;1651281;85;22285;-76
2021/11/12 07:59:21;;;;;;;;;;;;;;;7.73;100.00;100863.70;1647314;85;20153;-77
2021/11/12 08:01:47;;;;;;;;;;;;;;;7.71;100.00;100861.69;1660941;85;20185;-76
2021/11/12 08:04:12;;;;;;;;;;;;;;;7.84;100.00;100865.00;1648178;86;20317;-77
2021/11/12 08:06:38;;;;;;;;;;;;;;;7.89;100.00;100861.55;1651162;86;20181;-75
2021/11/12 08:09:13;;;;;;;;;;;;;;;7.78;100.00;100863.34;1649403;85;22197;-75
2021/11/12 08:11:44;;;;;;;;;;;;;;;7.81;100.00;100872.31;1650605;86;20169;-78
2021/11/12 08:14:11;;;;;;;;;;;;;;;7.89;100.00;100868.13;1651567;85;20177;-76
2021/11/12 08:19:15;;;;;;;;;;;;;;;7.80;100.00;100871.48;1653275;85;20202;-75
2021/11/12 08:21:49;;;;;;;;;;;;;;;7.97;100.00;100870.61;1650572;86;20136;-77
2021/11/12 08:24:15;;;;;;;;;;;;;;;8.04;100.00;100869.18;1651800;85;20120;-76
2021/11/12 08:27:32;;;;;;;;;;;;;;;7.96;100.00;100871.59;1656576;86;20200;-78
2021/11/12 08:34:39;;;;;;;;;;;;;;;8.09;100.00;100870.95;1653715;86;20141;-79
2021/11/12 08:37:02;;;;;;;;;;;;;;;7.96;100.00;100872.91;1652256;85;20125;-78
2021/11/12 08:39:37;;;;;;;;;;;;;;;8.04;100.00;100874.44;1651234;85;20104;-76
2021/11/12 08:42:38;;;;;;;;;;;;;;;8.20;100.00;100870.95;1634355;86;20508;-77
2021/11/12 08:47:06;;;;;;;;;;;;;;;8.17;100.00;100875.15;1601761;86;20589;-74
2021/11/12 08:49:31;;;;;;;;;;;;;;;8.21;100.00;100864.72;1634265;85;20102;-75
2021/11/12 08:52:00;;;;;;;;;;;;;;;8.27;100.00;100872.12;1632121;86;20149;-75
2021/11/12 08:54:32;;;;;;;;;;;;;;;8.20;100.00;100874.91;1630179;87;20136;-76
2021/11/12 08:56:56;;;;;;;;;;;;;;;8.26;100.00;100864.34;1630035;86;20510;-77
2021/11/12 08:59:22;;;;;;;;;;;;;;;8.21;100.00;100863.40;1636563;87;21134;-74
2021/11/12 09:01:48;;;;;;;;;;;;;;;8.30;100.00;100867.55;1631383;86;20157;-77
2021/11/12 09:04:14;;;;;;;;;;;;;;;8.34;100.00;100867.19;1632505;86;20518;-76
2021/11/12 09:06:40;;;;;;;;;;;;;;;8.30;100.00;100863.61;1633270;86;20242;-77
2021/11/12 09:09:06;;;;;;;;;;;;;;;8.30;100.00;100871.50;1641909;86;20257;-76
2021/11/12 09:11:32;;;;;;;;;;;;;;;8.37;100.00;100864.80;1634782;86;21101;-77
2021/11/12 09:14:01;;;;;;;;;;;;;;;8.31;100.00;100869.23;1641109;86;20299;-79
2021/11/12 09:16:37;;;;;;;;;;;;;;;8.40;100.00;100865.86;1632681;86;20177;-75
2021/11/12 09:18:58;;;;;;;;;;;;;;;8.28;100.00;100865.05;1634413;86;20190;-77
2021/11/12 09:21:23;;;;;;;;;;;;;;;8.39;100.00;100866.81;1635512;86;20150;-78
2021/11/12 09:23:49;;;;;;;;;;;;;;;8.44;100.00;100872.11;1639798;86;21191;-77
2021/11/12 09:26:15;;;;;;;;;;;;;;;8.29;100.00;100865.91;1633664;87;20166;-82
2021/11/12 09:28:41;;;;;;;;;;;;;;;8.45;100.00;100866.34;1636232;86;20520;-77
2021/11/12 09:31:10;;;;;;;;;;;;;;;8.59;100.00;100859.95;1630146;86;20463;-80
2021/11/12 09:33:36;;;;;;;;;;;;;;;8.49;100.00;100865.16;1629907;87;20254;-79
2021/11/12 09:36:04;;;;;;;;;;;;;;;8.63;100.00;100868.80;1630553;86;21092;-76
2021/11/12 09:38:30;;;;;;;;;;;;;;;8.61;100.00;100868.09;1633261;86;20141;-80
2021/11/12 09:40:56;;;;;;;;;;;;;;;8.70;100.00;100864.34;1636660;86;20236;-82
2021/11/12 09:43:25;;;;;;;;;;;;;;;8.75;100.00;100870.09;1643029;86;20168;-81
2021/11/12 09:45:51;;;;;;;;;;;;;;;8.78;100.00;100864.57;1644005;85;20213;-76
2021/11/12 09:48:17;;;;;;;;;;;;;;;8.81;100.00;100865.64;1646771;86;21185;-77
2021/11/12 09:50:43;;;;;;;;;;;;;;;8.90;100.00;100858.75;1642484;86;20135;-76
2021/11/12 09:53:09;;;;;;;;;;;;;;;8.87;100.00;100863.81;1645468;85;20114;-77
2021/11/12 09:55:35;;;;;;;;;;;;;;;8.81;100.00;100861.69;1645348;85;20483;-76
2021/11/12 09:58:01;;;;;;;;;;;;;;;9.00;100.00;100852.25;1649958;86;20249;-84
2021/11/12 10:00:29;;;;;;;;;;;;;;;8.92;100.00;100858.16;1649096;86;21085;-75
2021/11/12 10:02:57;;;;;;;;;;;;;;;9.03;100.00;100858.58;1642610;86;20106;-76
2021/11/12 10:05:45;;;;;;;;;;;;;;;8.93;100.00;100855.40;1642407;86;20173;-76
2021/11/12 10:08:23;;;;;;;;;;;;;;;9.01;100.00;100865.30;1644495;86;20206;-81
2021/11/12 10:10:49;;;;;;;;;;;;;;;9.00;100.00;100860.16;1632207;86;20137;-75
2021/11/12 10:13:20;;;;;;;;;;;;;;;9.08;100.00;100853.26;1643724;86;21154;-78
2021/11/12 10:16:00;;;;;;;;;;;;;;;9.17;100.00;100856.93;1639347;85;20125;-76
2021/11/12 10:18:22;;;;;;;;;;;;;;;9.14;100.00;100855.38;1645328;85;20133;-76
2021/11/12 10:21:02;;;;;;;;;;;;;;;9.10;100.00;100853.13;1644962;86;20168;-76
2021/11/12 10:23:32;;;;;;;;;;;;;;;9.15;100.00;100857.52;1645793;86;20203;-77
2021/11/12 10:26:04;;;;;;;;;;;;;;;8.95;100.00;100856.59;1646337;86;21256;-77
2021/11/12 10:28:35;;;;;;;;;;;;;;;8.91;100.00;100853.35;1640402;86;20354;-81
2021/11/12 10:31:13;;;;;;;;;;;;;;;8.84;100.00;100853.53;1642694;85;20211;-74
2021/11/12 10:33:39;;;;;;;;;;;;;;;8.91;100.00;100854.67;1646753;86;20221;-74
2021/11/12 10:36:05;;;;;;;;;;;;;;;9.04;100.00;100854.47;1645370;86;20216;-77
2021/11/12 10:38:44;;;;;;;;;;;;;;;9.05;100.00;100852.20;1645303;85;21121;-78
2021/11/12 10:41:19;;;;;;;;;;;;;;;9.10;100.00;100851.81;1645379;86;20147;-75
2021/11/12 10:43:47;;;;;;;;;;;;;;;9.07;100.00;100845.48;1642461;86;32506;-75
2021/11/12 10:46:12;;;;;;;;;;;;;;;9.00;100.00;100845.17;1646554;85;20167;-76
2021/11/12 10:48:39;;;;;;;;;;;;;;;9.00;100.00;100836.45;1647376;86;20221;-76
2021/11/12 10:51:19;;;;;;;;;;;;;;;9.00;100.00;100846.98;1638058;86;21068;-82
2021/11/12 10:53:50;;;;;;;;;;;;;;;9.01;100.00;100843.36;1645393;86;20301;-81
2021/11/12 10:56:18;;;;;;;;;;;;;;;8.97;100.00;100838.36;1645206;86;20153;-77
2021/11/12 10:59:04;;;;;;;;;;;;;;;9.14;100.00;100824.25;1645206;85;20928;-77
2021/11/12 11:01:33;;;;;;;;;;;;;;;9.12;100.00;100825.70;1647672;86;20237;-76
2021/11/12 11:04:21;;;;;;;;;;;;;;;9.30;100.00;100822.45;1641491;86;21120;-75
2021/11/12 11:06:48;;;;;;;;;;;;;;;9.38;100.00;100820.48;1638935;86;20156;-77
2021/11/12 11:09:14;;;;;;;;;;;;;;;9.40;100.00;100825.12;1644332;85;20138;-76
2021/11/12 11:11:44;;;;;;;;;;;;;;;9.47;100.00;100821.83;1605230;88;20202;-77
2021/11/12 11:14:30;;;;;;;;;;;;;;;9.48;100.00;100825.33;1614269;88;20253;-75
2021/11/12 11:16:57;;;;;;;;;;;;;;;9.60;100.00;100824.73;1613668;87;21107;-76
2021/11/12 11:19:33;;;;;;;;;;;;;;;9.72;100.00;100822.84;1627830;86;20200;-79
2021/11/12 11:22:10;;;;;;;;;;;;;;;9.65;100.00;100823.37;1626909;86;20504;-73
2021/11/12 11:24:33;;;;;;;;;;;;;;;9.65;100.00;100824.69;1629678;86;20606;-75
2021/11/12 11:26:58;;;;;;;;;;;;;;;9.63;100.00;100818.72;1630634;86;20178;-76
2021/11/12 11:29:24;;;;;;;;;;;;;;;9.75;100.00;100816.80;1629978;86;21201;-79
2021/11/12 11:31:51;;;;;;;;;;;;;;;9.76;100.00;100813.20;1614085;86;20257;-82
2021/11/12 11:34:20;;;;;;;;;;;;;;;9.85;99.90;100816.81;1631072;86;20947;-81
2021/11/12 11:36:51;;;;;;;;;;;;;;;9.79;99.55;100810.77;1625699;87;20180;-79
2021/11/12 11:39:20;;;;;;;;;;;;;;;9.89;99.55;100802.40;1600897;88;20144;-77
2021/11/12 11:41:48;;;;;;;;;;;;;;;9.91;99.35;100809.68;1626974;86;21204;-78
2021/11/12 11:44:15;;;;;;;;;;;;;;;9.83;99.30;100804.26;1629707;86;20178;-77
2021/11/12 11:46:43;;;;;;;;;;;;;;;9.95;99.14;100807.13;1627693;86;20482;-75
2021/11/12 11:49:13;;;;;;;;;;;;;;;10.02;98.60;100806.95;1633394;86;20130;-76
2021/11/12 11:51:43;;;;;;;;;;;;;;;10.12;98.41;100804.81;1632279;86;20590;-76
2021/11/12 11:54:10;;;;;;;;;;;;;;;10.13;97.99;100798.55;1579941;89;22577;-76
2021/11/12 11:56:42;;;;;;;;;;;;;;;10.14;98.43;100798.41;1630056;86;20546;-77
2021/11/12 11:59:23;;;;;;;;;;;;;;;10.18;98.32;100797.17;1631152;86;20197;-82
2021/11/12 12:01:51;;;;;;;;;;;;;;;10.25;97.85;100794.80;1629550;87;20489;-75
2021/11/12 12:04:20;;;;;;;;;;;;;;;10.27;97.76;100794.66;1629690;86;20226;-75
2021/11/12 12:07:07;;;;;;;;;;;;;;;10.23;97.01;100801.54;1628324;86;21102;-73
2021/11/12 12:09:53;;;;;;;;;;;;;;;10.11;97.67;100791.26;1627978;86;20178;-74
2021/11/12 12:12:35;;;;;;;;;;;;;;;10.10;97.45;100799.67;1623989;86;20212;-76
2021/11/12 12:15:05;;;;;;;;;;;;;;;10.30;97.09;100790.43;1629360;86;20248;-77
2021/11/12 12:17:33;;;;;;;;;;;;;;;10.22;96.64;100785.38;1631509;85;20234;-75
2021/11/12 12:31:04;;;;;;;;;;;;;;;10.35;96.29;100780.34;1599708;88;20155;-77
2021/11/12 13:20:10;;;;;;;;;;;;;;;10.19;98.50;100766.32;1645716;86;20150;-76
2021/11/12 13:22:22;;;;;;;;;;;;;;;10.31;97.66;100770.49;1638414;85;20204;-75
2021/11/12 13:24:52;;;;;;;;;;;;;;;10.26;97.45;100770.08;1640462;85;20148;-77
2021/11/12 13:27:18;;;;;;;;;;;;;;;10.23;97.47;100762.45;1644033;85;20210;-74
2021/11/12 13:29:44;;;;;;;;;;;;;;;10.20;97.54;100760.08;1647032;86;21192;-75
2021/11/12 13:32:09;;;;;;;;;;;;;;;10.17;97.53;100770.91;1644032;84;20215;-74
2021/11/12 13:34:42;;;;;;;;;;;;;;;10.06;98.12;100767.92;1639778;85;20460;-74
2021/11/12 13:37:24;;;;;;;;;;;;;;;10.08;97.50;100769.10;1644494;85;20785;-75
2021/11/12 13:40:08;;;;;;;;;;;;;;;10.15;96.86;100764.95;1641914;85;20544;-75
2021/11/12 13:42:52;;;;;;;;;;;;;;;10.17;96.68;100760.36;1649115;85;21149;-75
2021/11/12 13:45:20;;;;;;;;;;;;;;;10.22;96.23;100763.41;1653721;85;20135;-74
2021/11/12 13:47:46;;;;;;;;;;;;;;;10.33;95.89;100766.42;1657431;85;20136;-75
2021/11/12 13:50:16;;;;;;;;;;;;;;;10.37;95.59;100764.69;1654892;85;20177;-75
2021/11/12 13:52:44;;;;;;;;;;;;;;;10.33;95.88;100769.92;1653875;85;20514;-75
2021/11/12 13:55:13;;;;;;;;;;;;;;;10.30;95.95;100774.12;1652985;85;21144;-76
2021/11/12 13:57:45;;;;;;;;;;;;;;;10.22;96.02;100772.18;1652798;85;20163;-75
2021/11/12 14:00:10;;;;;;;;;;;;;;;10.26;96.46;100770.58;1650243;85;20303;-76
2021/11/12 14:03:00;;;;;;;;;;;;;;;10.28;95.88;100772.09;1653810;85;20161;-75
2021/11/12 14:05:25;;;;;;;;;;;;;;;10.37;96.06;100769.14;1655204;85;20613;-76
2021/11/12 14:08:06;;;;;;;;;;;;;;;10.41;95.55;100775.33;1652157;85;21112;-75
2021/11/12 14:10:40;;;;;;;;;;;;;;;10.38;95.12;100773.46;1651960;85;20190;-75
2021/11/12 14:13:06;;;;;;;;;;;;;;;10.37;95.48;100776.56;1655149;85;20171;-76
2021/11/12 14:15:51;;;;;;;;;;;;;;;10.43;95.53;100776.51;1655227;85;20208;-76
2021/11/12 14:18:24;;;;;;;;;;;;;;;10.45;95.11;100763.16;1650671;85;20475;-78
2021/11/12 14:20:45;;;;;;;;;;;;;;;10.50;94.91;100775.45;1653503;85;20223;-77
2021/11/12 14:23:15;;;;;;;;;;;;;;;10.51;94.68;100778.45;1650454;85;20202;-77
2021/11/12 14:28:15;;;;;;;;;;;;;;;10.60;94.29;100780.25;1658022;85;20154;-75
2021/11/12 14:33:30;;;;;;;;;;;;;;;10.31;95.01;100781.05;1636380;85;20103;-74
2021/11/12 14:38:34;;;;;;;;;;;;;;;10.29;95.89;100790.11;1623523;85;20161;-73
2021/11/12 14:46:51;;;;;;;;;;;;;;;10.38;95.55;100790.13;1651177;85;20210;-74
2021/11/12 14:49:31;;;;;;;;;;;;;;;10.41;95.27;100784.57;1650857;85;20110;-73
2021/11/12 14:52:13;;;;;;;;;;;;;;;10.40;95.02;100797.41;1654059;84;20491;-73
2021/11/12 14:54:49;;;;;;;;;;;;;;;10.33;95.21;100795.00;1653691;85;20624;-74
2021/11/12 14:57:31;;;;;;;;;;;;;;;10.26;95.42;100795.16;1646439;86;20142;-73
2021/11/12 14:59:42;;;;;;;;;;;;;;;10.30;95.49;100786.47;1645546;85;20169;-76
2021/11/12 15:02:09;;;;;;;;;;;;;;;10.29;95.43;100788.28;1651402;85;20126;-74
2021/11/12 15:04:36;;;;;;;;;;;;;;;10.36;95.55;100795.19;1654544;85;21383;-73
2021/11/12 15:07:01;;;;;;;;;;;;;;;10.37;95.24;100792.41;1654704;85;20484;-72
2021/11/12 15:09:32;;;;;;;;;;;;;;;10.38;95.23;100791.45;1655675;85;20199;-73
2021/11/12 15:11:59;;;;;;;;;;;;;;;10.30;95.12;100795.25;1652879;85;22700;-72
2021/11/12 15:14:26;;;;;;;;;;;;;;;10.34;95.07;100803.25;1657387;85;20462;-74
2021/11/12 15:16:52;;;;;;;;;;;;;;;10.31;95.27;100802.67;1645363;85;20139;-74
2021/11/12 15:19:19;;;;;;;;;;;;;;;10.33;95.31;100804.23;1649508;85;20667;-80
2021/11/12 15:21:56;;;;;;;;;;;;;;;10.31;95.25;100804.81;1650315;85;20178;-71
2021/11/12 15:29:23;;;;;;;;;;;;;;;10.20;95.66;100799.67;1655446;85;20487;-72
2021/11/12 15:34:17;;;;;;;;;;;;;;;10.23;95.73;100809.95;1657518;85;20161;-74
2021/11/12 15:37:34;;;;;;;;;;;;;;;10.24;95.80;100808.99;1654305;85;21055;-73
2021/11/12 15:39:12;;;;;;;;;;;;;;;10.26;95.89;100808.86;1636658;85;20161;-74
2021/11/12 15:44:27;;;;;;;;;;;;;;;10.25;96.29;100813.28;1651663;85;20216;-77
2021/11/12 15:46:51;;;;;;;;;;;;;;;10.24;96.35;100816.91;1646606;86;20133;-74
2021/11/12 15:49:22;;;;;;;;;;;;;;;10.23;96.60;100809.46;1648441;85;20200;-73
2021/11/12 15:51:50;;;;;;;;;;;;;;;10.26;96.42;100810.17;1647845;84;20106;-73
2021/11/12 15:54:24;;;;;;;;;;;;;;;10.26;96.50;100820.23;1646465;86;20151;-73
2021/11/12 15:59:24;;;;;;;;;;;;;;;10.40;95.99;100818.53;1646697;86;20094;-76
2021/11/12 16:04:43;;;;;;;;;;;;;;;10.33;95.88;100826.68;1645072;86;20117;-74
2021/11/12 16:09:25;;;;;;;;;;;;;;;10.31;95.68;100835.66;1648451;86;20138;-73
2021/11/12 16:14:56;;;;;;;;;;;;;;;10.19;95.53;100829.66;1647913;86;20122;-73
2021/11/12 16:20:07;;;;;;;;;;;;;;;10.12;95.83;100824.11;1646192;86;20126;-75
2021/11/12 16:22:39;;;;;;;;;;;;;;;10.23;95.74;100829.25;1643635;86;20434;-74
2021/11/12 16:27:24;;;;;;;;;;;;;;;10.28;95.04;100831.98;1643016;86;20137;-74
2021/11/12 16:29:52;;;;;;;;;;;;;;;10.33;94.97;100833.75;1643774;86;20480;-76
2021/11/12 16:34:56;;;;;;;;;;;;;;;10.24;94.94;100832.75;1647736;86;20192;-74
2021/11/12 16:37:20;;;;;;;;;;;;;;;10.19;94.78;100832.30;1645552;86;20487;-73
2021/11/12 16:39:58;;;;;;;;;;;;;;;10.17;95.10;100832.94;1647269;85;20141;-74
2021/11/12 16:42:31;;;;;;;;;;;;;;;10.21;95.06;100838.30;1644999;85;20148;-75
2021/11/12 16:44:57;;;;;;;;;;;;;;;10.23;95.11;100840.31;1646035;86;20168;-73
2021/11/12 16:52:46;;;;;;;;;;;;;;;10.28;94.97;100839.90;1647264;86;20142;-73
2021/11/12 16:55:19;;;;;;;;;;;;;;;10.30;94.77;100838.80;1645994;86;20157;-73
2021/11/12 16:57:48;;;;;;;;;;;;;;;10.32;94.77;100842.12;1648648;86;20136;-73
2021/11/12 17:02:49;;;;;;;;;;;;;;;10.38;94.46;100837.66;1645764;86;20174;-72
2021/11/12 17:05:20;;;;;;;;;;;;;;;10.34;94.27;100840.20;1645616;86;20149;-73
2021/11/12 17:07:58;;;;;;;;;;;;;;;10.34;94.27;100841.53;1647811;86;20177;-75
2021/11/12 17:15:41;;;;;;;;;;;;;;;10.39;94.22;100843.29;1649572;85;20149;-73
2021/11/12 17:44:43;;;;;;;;;;;;;;;10.35;94.38;100852.95;1643925;86;20510;-77
2021/11/12 17:48:03;;;;;;;;;;;;;;;10.25;95.22;100842.31;1646728;86;20189;-75
2021/11/12 18:03:51;;;;;;;;;;;;;;;10.30;94.60;100837.48;1645483;86;20222;-78
2021/11/12 18:06:20;;;;;;;;;;;;;;;10.29;94.57;100830.52;1640684;86;20168;-80
2021/11/12 18:09:20;;;;;;;;;;;;;;;10.23;94.65;100825.80;1647664;86;21004;-76
2021/11/12 18:14:38;;;;;;;;;;;;;;;10.22;94.52;100824.11;1643487;86;20169;-75
2021/11/12 18:22:05;;;;;;;;;;;;;;;10.15;94.80;100813.28;1647357;86;20213;-78
2021/11/12 21:47:22;;;;;;;;;;;;;;;9.45;92.28;100749.14;1659671;85;20151;-78